Time;durP1;ratioP1;P1;durP2;ratioP2;P2;SDS_P1;SDS_P2;PMS_P1;PMS_P2;Temp;Humidity;BMP_temperature;BMP_pressure;BME280_temperature;BME280_humidity;BME280_pressure;Samples;Min_cycle;Max_cycle;Signal;HPM_P1;HPM_P2
2021/07/24 00:01:04;;;;;;;;;;;;;;;;;;5024130;28;1392;-53
2021/07/24 00:03:29;;;;;;;;;;;;;;;;;;5021158;28;1182;-51
2021/07/24 00:05:54;;;;;;;;;;;;;;;;;;5023481;28;1545;-52
2021/07/24 00:08:19;;;;;;;;;;;;;;;;;;5021456;28;1201;-51
2021/07/24 00:10:45;;;;;;;;;;;;;;;;;;5021770;28;1588;-52
2021/07/24 00:13:10;;;;;;;;;;;;;;;;;;5022441;28;1181;-51
2021/07/24 00:15:35;;;;;;;;;;;;;;;;;;5021074;28;1906;-52
2021/07/24 00:18:01;;;;;;;;;;;;;;;;;;5022710;28;1114;-51
2021/07/24 00:20:26;;;;;;;;;;;;;;;;;;5022176;28;1553;-54
2021/07/24 00:22:51;;;;;;;;;;;;;;;;;;5023110;28;1216;-51
2021/07/24 00:25:16;;;;;;;;;;;;;;;;;;5020701;28;1661;-53
2021/07/24 00:27:41;;;;;;;;;;;;;;;;;;5021194;28;1775;-51
2021/07/24 00:30:07;;;;;;;;;;;;;;;;;;5019565;28;1633;-53
2021/07/24 00:32:32;;;;;;;;;;;;;;;;;;5024061;28;1414;-52
2021/07/24 00:34:57;;;;;;;;;;;;;;;;;;5021161;28;1914;-51
2021/07/24 00:37:22;;;;;;;;;;;;;;;;;;5021832;28;1295;-53
2021/07/24 00:39:48;;;;;;;;;;;;;;;;;;5021363;28;1625;-52
2021/07/24 00:42:16;;;;;;;;;;;;;;;;;;5022228;28;1557;-51
2021/07/24 00:44:45;;;;;;;;;;;;;;;;;;5022536;28;1480;-53
2021/07/24 00:47:10;;;;;;;;;;;;;;;;;;5021169;28;1225;-54
2021/07/24 00:49:35;;;;;;;;;;;;;;;;;;5021400;28;1565;-53
2021/07/24 00:52:00;;;;;;;;;;;;;;;;;;5024960;28;1220;-54
2021/07/24 00:54:26;;;;;;;;;;;;;;;;;;5019346;28;1307;-54
2021/07/24 00:56:51;;;;;;;;;;;;;;;;;;5023554;28;1906;-54
2021/07/24 00:59:16;;;;;;;;;;;;;;;;;;5015161;28;1470;-50
2021/07/24 01:01:43;;;;;;;;;;;;;;;;;;5016128;28;1658;-52
2021/07/24 01:04:09;;;;;;;;;;;;;;;;;;5017141;28;1612;-53
2021/07/24 01:06:34;;;;;;;;;;;;;;;;;;5017442;28;1509;-53
2021/07/24 01:08:59;;;;;;;;;;;;;;;;;;5006554;28;1170;-53
2021/07/24 01:11:25;;;;;;;;;;;;;;;;;;5006851;28;1630;-54
2021/07/24 01:13:50;;;;;;;;;;;;;;;;;;5019854;28;1181;-51
2021/07/24 01:16:15;;;;;;;;;;;;;;;;;;5019148;28;1906;-53
2021/07/24 01:18:41;;;;;;;;;;;;;;;;;;5020593;28;1229;-51
2021/07/24 01:21:07;;;;;;;;;;;;;;;;;;5020172;28;1657;-51
2021/07/24 01:23:32;;;;;;;;;;;;;;;;;;5023144;28;1236;-54
2021/07/24 01:25:57;;;;;;;;;;;;;;;;;;5018470;28;1754;-54
2021/07/24 01:28:32;;;;;;;;;;;;;;;;;;5027827;28;1573;-54
2021/07/24 01:30:58;;;;;;;;;;;;;;;;;;5023666;28;1398;-53
2021/07/24 01:33:23;;;;;;;;;;;;;;;;;;5029323;28;1220;-51
2021/07/24 01:35:49;;;;;;;;;;;;;;;;;;5024232;28;1974;-54
2021/07/24 01:38:14;;;;;;;;;;;;;;;;;;5027987;28;1597;-51
2021/07/24 01:40:40;;;;;;;;;;;;;;;;;;5024892;28;1644;-51
2021/07/24 01:43:05;;;;;;;;;;;;;;;;;;5022601;28;1584;-54
2021/07/24 01:45:31;;;;;;;;;;;;;;;;;;5024566;28;1644;-52
2021/07/24 01:47:57;;;;;;;;;;;;;;;;;;5024315;28;1145;-53
2021/07/24 01:53:06;;;;;;;;;;;;;;;;;;5025358;28;995;-54
2021/07/24 01:55:31;;;;;;;;;;;;;;;;;;5023656;28;2039;-52
2021/07/24 01:57:56;;;;;;;;;;;;;;;;;;5025254;28;1054;-54
2021/07/24 02:00:21;;;;;;;;;;;;;;;;;;5011640;28;1497;-52
2021/07/24 02:02:47;;;;;;;;;;;;;;;;;;5026654;28;1130;-53
2021/07/24 02:05:19;;;;;;;;;;;;;;;;;;5022606;28;1620;-53
2021/07/24 02:07:44;;;;;;;;;;;;;;;;;;5013514;28;1238;-52
2021/07/24 02:10:09;;;;;;;;;;;;;;;;;;5023954;28;1598;-52
2021/07/24 02:12:35;;;;;;;;;;;;;;;;;;5026297;28;1106;-52
2021/07/24 02:15:00;;;;;;;;;;;;;;;;;;5023663;28;1906;-53
2021/07/24 02:17:26;;;;;;;;;;;;;;;;;;5027720;28;1177;-53
2021/07/24 02:19:51;;;;;;;;;;;;;;;;;;5011686;28;1559;-53
2021/07/24 02:22:16;;;;;;;;;;;;;;;;;;5024581;28;1377;-53
2021/07/24 02:24:41;;;;;;;;;;;;;;;;;;5023577;28;1724;-53
2021/07/24 02:27:09;;;;;;;;;;;;;;;;;;5026776;28;1420;-53
2021/07/24 02:29:34;;;;;;;;;;;;;;;;;;5023402;28;1613;-52
2021/07/24 02:31:59;;;;;;;;;;;;;;;;;;5024956;28;1477;-53
2021/07/24 02:34:25;;;;;;;;;;;;;;;;;;5024206;28;1157;-51
2021/07/24 02:36:50;;;;;;;;;;;;;;;;;;5025020;28;1972;-52
2021/07/24 02:39:15;;;;;;;;;;;;;;;;;;5024888;28;1216;-52
2021/07/24 02:41:40;;;;;;;;;;;;;;;;;;5022523;28;1984;-51
2021/07/24 02:44:05;;;;;;;;;;;;;;;;;;5022183;28;1637;-51
2021/07/24 02:46:30;;;;;;;;;;;;;;;;;;5026047;28;1330;-53
2021/07/24 02:48:56;;;;;;;;;;;;;;;;;;5023657;28;1073;-51
2021/07/24 02:51:21;;;;;;;;;;;;;;;;;;5025051;28;1414;-53
2021/07/24 02:53:46;;;;;;;;;;;;;;;;;;5021539;28;1566;-52
2021/07/24 02:56:11;;;;;;;;;;;;;;;;;;5022947;28;1971;-52
2021/07/24 02:58:37;;;;;;;;;;;;;;;;;;5026066;28;1415;-51
2021/07/24 03:01:06;;;;;;;;;;;;;;;;;;5023313;28;1003;-54
2021/07/24 03:03:31;;;;;;;;;;;;;;;;;;5021519;28;1130;-54
2021/07/24 03:05:56;;;;;;;;;;;;;;;;;;5024607;28;1513;-54
2021/07/24 03:08:21;;;;;;;;;;;;;;;;;;5023398;28;1243;-54
2021/07/24 03:10:47;;;;;;;;;;;;;;;;;;5023661;28;1609;-51
2021/07/24 03:13:12;;;;;;;;;;;;;;;;;;5022189;28;1569;-53
2021/07/24 03:15:37;;;;;;;;;;;;;;;;;;5027379;28;1975;-51
2021/07/24 03:18:02;;;;;;;;;;;;;;;;;;5022428;28;1173;-52
2021/07/24 03:20:27;;;;;;;;;;;;;;;;;;5024068;28;1350;-52
2021/07/24 03:22:53;;;;;;;;;;;;;;;;;;5023550;28;1644;-52
2021/07/24 03:25:20;;;;;;;;;;;;;;;;;;5027307;28;1781;-52
2021/07/24 03:27:45;;;;;;;;;;;;;;;;;;5022226;28;1166;-54
2021/07/24 03:30:11;;;;;;;;;;;;;;;;;;5022879;28;1200;-53
2021/07/24 03:32:36;;;;;;;;;;;;;;;;;;5022883;28;1593;-53
2021/07/24 03:35:01;;;;;;;;;;;;;;;;;;5023698;28;1906;-53
2021/07/24 03:37:27;;;;;;;;;;;;;;;;;;5023027;28;1280;-53
2021/07/24 03:39:52;;;;;;;;;;;;;;;;;;5020469;28;1562;-54
2021/07/24 03:42:17;;;;;;;;;;;;;;;;;;5024370;28;1122;-52
2021/07/24 03:44:43;;;;;;;;;;;;;;;;;;5022312;28;1465;-54
2021/07/24 03:47:08;;;;;;;;;;;;;;;;;;5026092;28;1111;-53
2021/07/24 03:49:33;;;;;;;;;;;;;;;;;;5020984;28;1585;-53
2021/07/24 03:51:58;;;;;;;;;;;;;;;;;;5025450;28;1158;-53
2021/07/24 03:54:23;;;;;;;;;;;;;;;;;;5019681;28;1383;-52
2021/07/24 03:56:48;;;;;;;;;;;;;;;;;;5022322;28;1969;-54
2021/07/24 03:59:14;;;;;;;;;;;;;;;;;;5022606;28;1662;-52
2021/07/24 04:01:41;;;;;;;;;;;;;;;;;;5022997;28;1336;-52
2021/07/24 04:04:06;;;;;;;;;;;;;;;;;;5022189;28;1344;-52
2021/07/24 04:06:31;;;;;;;;;;;;;;;;;;5021465;28;1300;-51
2021/07/24 04:08:57;;;;;;;;;;;;;;;;;;5021691;28;1664;-53
2021/07/24 04:11:22;;;;;;;;;;;;;;;;;;5023716;28;1648;-53
2021/07/24 04:13:48;;;;;;;;;;;;;;;;;;5020321;28;1618;-52
2021/07/24 04:16:13;;;;;;;;;;;;;;;;;;5011440;28;1906;-54
2021/07/24 04:18:39;;;;;;;;;;;;;;;;;;5024338;28;1446;-53
2021/07/24 04:21:04;;;;;;;;;;;;;;;;;;5020115;28;1573;-53
2021/07/24 04:23:29;;;;;;;;;;;;;;;;;;5021309;28;1434;-54
2021/07/24 04:25:54;;;;;;;;;;;;;;;;;;5022009;28;1833;-54
2021/07/24 04:28:19;;;;;;;;;;;;;;;;;;5022243;28;1624;-54
2021/07/24 04:30:45;;;;;;;;;;;;;;;;;;5024094;28;1158;-54
2021/07/24 04:33:10;;;;;;;;;;;;;;;;;;5018567;28;1494;-54
2021/07/24 04:35:35;;;;;;;;;;;;;;;;;;5019144;28;1971;-54
2021/07/24 04:38:00;;;;;;;;;;;;;;;;;;5021389;28;1505;-54
2021/07/24 04:40:25;;;;;;;;;;;;;;;;;;5023196;28;1557;-54
2021/07/24 04:42:50;;;;;;;;;;;;;;;;;;5020417;28;1551;-54
2021/07/24 04:45:16;;;;;;;;;;;;;;;;;;5021338;28;1366;-54
2021/07/24 04:47:41;;;;;;;;;;;;;;;;;;5018929;28;1573;-52
2021/07/24 04:50:06;;;;;;;;;;;;;;;;;;5025650;28;1185;-54
2021/07/24 04:52:31;;;;;;;;;;;;;;;;;;5020411;28;1618;-53
2021/07/24 04:54:58;;;;;;;;;;;;;;;;;;5024408;28;2084;-54
2021/07/24 04:57:23;;;;;;;;;;;;;;;;;;5024409;28;1305;-52
2021/07/24 04:59:48;;;;;;;;;;;;;;;;;;5024162;28;1178;-54
2021/07/24 05:02:22;;;;;;;;;;;;;;;;;;5026606;28;1161;-53
2021/07/24 05:04:48;;;;;;;;;;;;;;;;;;5012617;28;1620;-53
2021/07/24 05:07:13;;;;;;;;;;;;;;;;;;5027191;28;1070;-52
2021/07/24 05:09:38;;;;;;;;;;;;;;;;;;5027328;28;1560;-53
2021/07/24 05:12:04;;;;;;;;;;;;;;;;;;5030198;28;2060;-54
2021/07/24 05:14:29;;;;;;;;;;;;;;;;;;5028033;28;1470;-54
2021/07/24 05:17:03;;;;;;;;;;;;;;;;;;5026972;28;1914;-53
2021/07/24 05:19:28;;;;;;;;;;;;;;;;;;5029695;28;1644;-53
2021/07/24 05:21:53;;;;;;;;;;;;;;;;;;5027940;28;1249;-52
2021/07/24 05:24:18;;;;;;;;;;;;;;;;;;5027503;28;1307;-51
2021/07/24 05:26:43;;;;;;;;;;;;;;;;;;5028550;28;1575;-52
2021/07/24 05:29:09;;;;;;;;;;;;;;;;;;5028984;28;1505;-53
2021/07/24 05:31:34;;;;;;;;;;;;;;;;;;5029796;28;1133;-53
2021/07/24 05:33:59;;;;;;;;;;;;;;;;;;5026596;28;1628;-53
2021/07/24 05:36:24;;;;;;;;;;;;;;;;;;5029590;28;1902;-52
2021/07/24 05:38:49;;;;;;;;;;;;;;;;;;5028486;28;1454;-54
2021/07/24 05:41:15;;;;;;;;;;;;;;;;;;5030922;28;1588;-53
2021/07/24 05:43:40;;;;;;;;;;;;;;;;;;5028272;28;1456;-54
2021/07/24 05:46:05;;;;;;;;;;;;;;;;;;5028017;28;1304;-53
2021/07/24 05:48:30;;;;;;;;;;;;;;;;;;5026565;28;1414;-54
2021/07/24 05:50:55;;;;;;;;;;;;;;;;;;5028741;28;1561;-54
2021/07/24 05:53:21;;;;;;;;;;;;;;;;;;5025635;28;1110;-54
2021/07/24 05:55:46;;;;;;;;;;;;;;;;;;5026221;28;1969;-53
2021/07/24 05:58:11;;;;;;;;;;;;;;;;;;5029673;28;1383;-54
2021/07/24 06:00:36;;;;;;;;;;;;;;;;;;5027593;28;1173;-51
2021/07/24 06:03:01;;;;;;;;;;;;;;;;;;5026740;28;1366;-51
2021/07/24 06:05:26;;;;;;;;;;;;;;;;;;5027810;28;1538;-54
2021/07/24 06:07:52;;;;;;;;;;;;;;;;;;5027788;28;1075;-51
2021/07/24 06:10:17;;;;;;;;;;;;;;;;;;5029210;28;1550;-52
2021/07/24 06:12:45;;;;;;;;;;;;;;;;;;5026668;28;1173;-51
2021/07/24 06:15:11;;;;;;;;;;;;;;;;;;5021694;28;1902;-51
2021/07/24 06:17:36;;;;;;;;;;;;;;;;;;5025156;28;1237;-52
2021/07/24 06:20:01;;;;;;;;;;;;;;;;;;5023560;28;1629;-53
2021/07/24 06:22:26;;;;;;;;;;;;;;;;;;5026297;28;1212;-54
2021/07/24 06:24:51;;;;;;;;;;;;;;;;;;5020588;28;1585;-52
2021/07/24 06:27:17;;;;;;;;;;;;;;;;;;5024944;28;1620;-53
2021/07/24 06:29:43;;;;;;;;;;;;;;;;;;5025798;28;1051;-54
2021/07/24 06:32:09;;;;;;;;;;;;;;;;;;5021696;28;1122;-54
2021/07/24 06:34:34;;;;;;;;;;;;;;;;;;5022535;28;1335;-54
2021/07/24 06:37:00;;;;;;;;;;;;;;;;;;5020697;28;1895;-54
2021/07/24 06:39:25;;;;;;;;;;;;;;;;;;5025604;28;1391;-54
2021/07/24 06:41:51;;;;;;;;;;;;;;;;;;5023182;28;1668;-54
2021/07/24 06:44:16;;;;;;;;;;;;;;;;;;5024505;28;1481;-54
2021/07/24 06:46:41;;;;;;;;;;;;;;;;;;5024596;28;1406;-53
2021/07/24 06:49:06;;;;;;;;;;;;;;;;;;5023208;28;1506;-53
2021/07/24 06:51:31;;;;;;;;;;;;;;;;;;5022131;28;1247;-54
2021/07/24 06:53:56;;;;;;;;;;;;;;;;;;5025415;28;1359;-54
2021/07/24 06:56:22;;;;;;;;;;;;;;;;;;5023528;28;1902;-54
2021/07/24 06:58:47;;;;;;;;;;;;;;;;;;5025962;28;1402;-53
2021/07/24 07:01:12;;;;;;;;;;;;;;;;;;5022384;28;1213;-53
2021/07/24 07:03:37;;;;;;;;;;;;;;;;;;5024421;28;1414;-52
2021/07/24 07:06:08;;;;;;;;;;;;;;;;;;5025384;28;1633;-54
2021/07/24 07:08:34;;;;;;;;;;;;;;;;;;5023903;28;1410;-54
2021/07/24 07:11:02;;;;;;;;;;;;;;;;;;5023740;28;1668;-54
2021/07/24 07:13:27;;;;;;;;;;;;;;;;;;5023944;28;1264;-53
2021/07/24 07:15:53;;;;;;;;;;;;;;;;;;5024535;28;1902;-53
2021/07/24 07:18:18;;;;;;;;;;;;;;;;;;5022795;28;1410;-53
2021/07/24 07:20:46;;;;;;;;;;;;;;;;;;5022843;28;1570;-53
2021/07/24 07:23:11;;;;;;;;;;;;;;;;;;5022840;28;1342;-53
2021/07/24 07:25:37;;;;;;;;;;;;;;;;;;5023716;28;1736;-52
2021/07/24 07:28:02;;;;;;;;;;;;;;;;;;5021794;28;1462;-53
2021/07/24 07:30:27;;;;;;;;;;;;;;;;;;5025081;28;1550;-53
2021/07/24 07:32:52;;;;;;;;;;;;;;;;;;5021585;28;1054;-53
2021/07/24 07:35:18;;;;;;;;;;;;;;;;;;5023104;28;1902;-53
2021/07/24 07:37:47;;;;;;;;;;;;;;;;;;5025366;28;1184;-52
2021/07/24 07:40:12;;;;;;;;;;;;;;;;;;5021255;28;1514;-53
2021/07/24 07:42:37;;;;;;;;;;;;;;;;;;5021196;28;1118;-52
2021/07/24 07:45:02;;;;;;;;;;;;;;;;;;5024914;28;1292;-53
2021/07/24 07:47:27;;;;;;;;;;;;;;;;;;5021890;28;1145;-54
2021/07/24 07:49:53;;;;;;;;;;;;;;;;;;5022974;28;1553;-52
2021/07/24 07:52:18;;;;;;;;;;;;;;;;;;5021514;28;1113;-53
2021/07/24 07:54:43;;;;;;;;;;;;;;;;;;5021934;28;1589;-53
2021/07/24 07:57:08;;;;;;;;;;;;;;;;;;5025473;28;1971;-54
2021/07/24 07:59:33;;;;;;;;;;;;;;;;;;5022378;28;1665;-53
2021/07/24 08:01:59;;;;;;;;;;;;;;;;;;5024861;28;1409;-54
2021/07/24 08:04:24;;;;;;;;;;;;;;;;;;5020841;28;1664;-52
2021/07/24 08:06:49;;;;;;;;;;;;;;;;;;5023751;28;1374;-54
2021/07/24 08:09:14;;;;;;;;;;;;;;;;;;5023526;28;1145;-54
2021/07/24 08:11:39;;;;;;;;;;;;;;;;;;5022399;28;1519;-54
2021/07/24 08:14:05;;;;;;;;;;;;;;;;;;5022393;28;1327;-54
2021/07/24 08:16:30;;;;;;;;;;;;;;;;;;5026275;28;1988;-53
2021/07/24 08:18:55;;;;;;;;;;;;;;;;;;5022208;28;1582;-52
2021/07/24 08:21:20;;;;;;;;;;;;;;;;;;5023646;28;1022;-54
2021/07/24 08:23:45;;;;;;;;;;;;;;;;;;5020517;28;1244;-54
2021/07/24 08:26:10;;;;;;;;;;;;;;;;;;5025656;28;1657;-54
2021/07/24 08:28:36;;;;;;;;;;;;;;;;;;5010632;28;1142;-53
2021/07/24 08:31:01;;;;;;;;;;;;;;;;;;5024039;28;1461;-54
2021/07/24 08:33:26;;;;;;;;;;;;;;;;;;5020563;28;1578;-54
2021/07/24 08:35:52;;;;;;;;;;;;;;;;;;5023491;28;1914;-51
2021/07/24 08:38:17;;;;;;;;;;;;;;;;;;5022906;28;1177;-53
2021/07/24 08:40:46;;;;;;;;;;;;;;;;;;5021077;28;2039;-53
2021/07/24 08:43:12;;;;;;;;;;;;;;;;;;5022848;28;1316;-54
2021/07/24 08:45:37;;;;;;;;;;;;;;;;;;5011331;28;1384;-54
2021/07/24 08:48:02;;;;;;;;;;;;;;;;;;5025206;28;1578;-52
2021/07/24 08:50:28;;;;;;;;;;;;;;;;;;5019984;28;1405;-53
2021/07/24 08:52:53;;;;;;;;;;;;;;;;;;5010143;28;1429;-51
2021/07/24 08:55:20;;;;;;;;;;;;;;;;;;5024523;28;1883;-53
2021/07/24 08:57:45;;;;;;;;;;;;;;;;;;5019425;28;1487;-53
2021/07/24 09:00:12;;;;;;;;;;;;;;;;;;5024835;28;1201;-53
2021/07/24 09:02:38;;;;;;;;;;;;;;;;;;5020711;28;1126;-53
2021/07/24 09:05:04;;;;;;;;;;;;;;;;;;5023542;28;1977;-54
2021/07/24 09:07:31;;;;;;;;;;;;;;;;;;5021460;28;1574;-53
2021/07/24 09:09:56;;;;;;;;;;;;;;;;;;5019327;28;1525;-54
2021/07/24 09:12:22;;;;;;;;;;;;;;;;;;5011453;28;1307;-54
2021/07/24 09:14:47;;;;;;;;;;;;;;;;;;5023336;28;1385;-54
2021/07/24 09:17:12;;;;;;;;;;;;;;;;;;5019293;28;1914;-53
2021/07/24 09:19:37;;;;;;;;;;;;;;;;;;5009366;28;1552;-54
2021/07/24 09:22:02;;;;;;;;;;;;;;;;;;5009256;28;1209;-52
2021/07/24 09:24:28;;;;;;;;;;;;;;;;;;5021927;28;1514;-52
2021/07/24 09:29:21;;;;;;;;;;;;;;;;;;4985135;28;1436;-53
2021/07/24 09:31:46;;;;;;;;;;;;;;;;;;4989338;28;1162;-51
2021/07/24 09:34:13;;;;;;;;;;;;;;;;;;4987224;28;1992;-54
2021/07/24 09:36:38;;;;;;;;;;;;;;;;;;4995111;28;1906;-53
2021/07/24 09:39:08;;;;;;;;;;;;;;;;;;4999283;28;1162;-53
2021/07/24 09:41:33;;;;;;;;;;;;;;;;;;4994801;28;1710;-54
2021/07/24 09:43:59;;;;;;;;;;;;;;;;;;5000069;28;1225;-52
2021/07/24 09:46:24;;;;;;;;;;;;;;;;;;4999131;28;1359;-51
2021/07/24 09:48:50;;;;;;;;;;;;;;;;;;5001283;28;1642;-54
2021/07/24 09:51:16;;;;;;;;;;;;;;;;;;4998884;28;1684;-54
2021/07/24 09:53:41;;;;;;;;;;;;;;;;;;5001417;28;1063;-53
2021/07/24 09:56:10;;;;;;;;;;;;;;;;;;5002436;28;1971;-52
2021/07/24 09:58:37;;;;;;;;;;;;;;;;;;4996584;28;1795;-53
2021/07/24 10:01:03;;;;;;;;;;;;;;;;;;5002504;28;1146;-54
2021/07/24 10:03:28;;;;;;;;;;;;;;;;;;5000431;28;1652;-52
2021/07/24 10:05:54;;;;;;;;;;;;;;;;;;4984591;28;1423;-52
2021/07/24 10:08:19;;;;;;;;;;;;;;;;;;5004461;28;1179;-52
2021/07/24 10:10:45;;;;;;;;;;;;;;;;;;4981881;28;1624;-51
2021/07/24 10:13:11;;;;;;;;;;;;;;;;;;5002993;28;1114;-53
2021/07/24 10:15:37;;;;;;;;;;;;;;;;;;4999991;28;1906;-53
2021/07/24 10:18:03;;;;;;;;;;;;;;;;;;5004352;28;1133;-52
2021/07/24 10:20:29;;;;;;;;;;;;;;;;;;5000099;28;1616;-53
2021/07/24 10:22:55;;;;;;;;;;;;;;;;;;5002064;28;1182;-52
2021/07/24 10:25:21;;;;;;;;;;;;;;;;;;4998410;28;1592;-52
2021/07/24 10:27:46;;;;;;;;;;;;;;;;;;4984865;28;1365;-51
2021/07/24 10:30:11;;;;;;;;;;;;;;;;;;4985614;28;1257;-54
2021/07/24 10:32:37;;;;;;;;;;;;;;;;;;4983030;28;1472;-52
2021/07/24 10:35:02;;;;;;;;;;;;;;;;;;4999498;28;1577;-54
2021/07/24 10:37:30;;;;;;;;;;;;;;;;;;5003079;28;1969;-54
2021/07/24 10:40:15;;;;;;;;;;;;;;;;;;4997837;28;1573;-53
2021/07/24 10:42:40;;;;;;;;;;;;;;;;;;4998808;28;1745;-54
2021/07/24 10:45:22;;;;;;;;;;;;;;;;;;4997424;28;1470;-54
2021/07/24 10:48:06;;;;;;;;;;;;;;;;;;4984352;28;1363;-51
2021/07/24 10:50:41;;;;;;;;;;;;;;;;;;5000310;28;1520;-52
2021/07/24 10:53:08;;;;;;;;;;;;;;;;;;4982879;28;1572;-53
2021/07/24 10:55:37;;;;;;;;;;;;;;;;;;4997890;28;1910;-53
2021/07/24 10:58:02;;;;;;;;;;;;;;;;;;5002510;28;1344;-51
2021/07/24 11:00:30;;;;;;;;;;;;;;;;;;5000657;28;1154;-53
2021/07/24 11:02:56;;;;;;;;;;;;;;;;;;4999286;28;1162;-51
2021/07/24 11:05:30;;;;;;;;;;;;;;;;;;4998979;28;1588;-53
2021/07/24 11:07:56;;;;;;;;;;;;;;;;;;5002123;28;1043;-52
2021/07/24 11:10:21;;;;;;;;;;;;;;;;;;4981526;28;1699;-53
2021/07/24 11:12:46;;;;;;;;;;;;;;;;;;4984156;28;1395;-54
2021/07/24 11:15:32;;;;;;;;;;;;;;;;;;5000991;28;1910;-51
2021/07/24 11:18:16;;;;;;;;;;;;;;;;;;4999836;28;1707;-51
2021/07/24 11:20:47;;;;;;;;;;;;;;;;;;4999502;28;1659;-54
2021/07/24 11:23:12;;;;;;;;;;;;;;;;;;4999775;28;1166;-52
2021/07/24 11:25:37;;;;;;;;;;;;;;;;;;4997151;28;1663;-52
2021/07/24 11:28:03;;;;;;;;;;;;;;;;;;4997220;28;1695;-53
2021/07/24 11:30:28;;;;;;;;;;;;;;;;;;4998484;28;1743;-53
2021/07/24 11:32:53;;;;;;;;;;;;;;;;;;5000764;28;1010;-52
2021/07/24 11:35:19;;;;;;;;;;;;;;;;;;4997098;28;2111;-54
2021/07/24 11:37:53;;;;;;;;;;;;;;;;;;4984591;28;1202;-52
2021/07/24 11:40:19;;;;;;;;;;;;;;;;;;4997513;28;1664;-53
2021/07/24 11:43:04;;;;;;;;;;;;;;;;;;5001233;28;1198;-53
2021/07/24 11:45:31;;;;;;;;;;;;;;;;;;4997653;28;1919;-52
2021/07/24 11:48:06;;;;;;;;;;;;;;;;;;5001259;28;1003;-52
2021/07/24 11:50:31;;;;;;;;;;;;;;;;;;4998589;28;1405;-51
2021/07/24 11:52:56;;;;;;;;;;;;;;;;;;4999239;28;1692;-51
2021/07/24 11:55:27;;;;;;;;;;;;;;;;;;4998335;28;1977;-53
2021/07/24 11:58:18;;;;;;;;;;;;;;;;;;5000775;28;1499;-53
2021/07/24 12:00:44;;;;;;;;;;;;;;;;;;4993784;28;1576;-53
2021/07/24 12:03:22;;;;;;;;;;;;;;;;;;5000361;28;1617;-52
2021/07/24 12:05:48;;;;;;;;;;;;;;;;;;4997912;28;1689;-51
2021/07/24 12:08:14;;;;;;;;;;;;;;;;;;4982077;28;1174;-52
2021/07/24 12:10:40;;;;;;;;;;;;;;;;;;4965292;28;1677;-53
2021/07/24 12:13:06;;;;;;;;;;;;;;;;;;4998469;28;1463;-53
2021/07/24 12:15:54;;;;;;;;;;;;;;;;;;4998823;28;1906;-52
2021/07/24 12:18:20;;;;;;;;;;;;;;;;;;4987476;28;1735;-52
2021/07/24 12:20:45;;;;;;;;;;;;;;;;;;4999128;28;1576;-53
2021/07/24 12:23:17;;;;;;;;;;;;;;;;;;4998159;28;1348;-53
2021/07/24 12:25:42;;;;;;;;;;;;;;;;;;4997728;28;1620;-53
2021/07/24 12:28:08;;;;;;;;;;;;;;;;;;4993574;28;1702;-52
2021/07/24 12:30:33;;;;;;;;;;;;;;;;;;5001336;28;1256;-52
2021/07/24 12:32:58;;;;;;;;;;;;;;;;;;5001567;28;1190;-51
2021/07/24 12:35:25;;;;;;;;;;;;;;;;;;4999458;28;1983;-53
2021/07/24 12:38:01;;;;;;;;;;;;;;;;;;4981534;28;1598;-52
2021/07/24 12:40:27;;;;;;;;;;;;;;;;;;4995893;28;1684;-54
2021/07/24 12:42:53;;;;;;;;;;;;;;;;;;4999919;28;1329;-53
2021/07/24 12:45:21;;;;;;;;;;;;;;;;;;5000064;28;1281;-51
2021/07/24 12:47:47;;;;;;;;;;;;;;;;;;4979907;28;1120;-53
2021/07/24 12:50:15;;;;;;;;;;;;;;;;;;4999033;28;1620;-54
2021/07/24 12:52:47;;;;;;;;;;;;;;;;;;4998800;28;1201;-52
2021/07/24 12:55:14;;;;;;;;;;;;;;;;;;4993806;28;1906;-51
2021/07/24 12:57:40;;;;;;;;;;;;;;;;;;5000486;28;1289;-52
2021/07/24 13:00:09;;;;;;;;;;;;;;;;;;4998087;28;1392;-53
2021/07/24 13:02:35;;;;;;;;;;;;;;;;;;5000876;28;1166;-51
2021/07/24 13:05:00;;;;;;;;;;;;;;;;;;4998902;28;1605;-51
2021/07/24 13:07:26;;;;;;;;;;;;;;;;;;4999466;28;1344;-52
2021/07/24 13:09:54;;;;;;;;;;;;;;;;;;4979180;28;2192;-53
2021/07/24 13:12:20;;;;;;;;;;;;;;;;;;5000257;28;1301;-54
2021/07/24 13:14:45;;;;;;;;;;;;;;;;;;4984095;28;1206;-53
2021/07/24 13:17:10;;;;;;;;;;;;;;;;;;4999139;28;1977;-53
2021/07/24 13:19:36;;;;;;;;;;;;;;;;;;4995868;28;1617;-53
2021/07/24 13:22:01;;;;;;;;;;;;;;;;;;4999606;28;1010;-51
2021/07/24 13:24:29;;;;;;;;;;;;;;;;;;5004492;28;1126;-52
2021/07/24 13:29:38;;;;;;;;;;;;;;;;;;5003840;28;996;-53
2021/07/24 13:32:04;;;;;;;;;;;;;;;;;;5001293;28;1515;-52
2021/07/24 13:34:29;;;;;;;;;;;;;;;;;;4984999;28;1265;-53
2021/07/24 13:36:54;;;;;;;;;;;;;;;;;;4999476;28;1910;-51
2021/07/24 13:39:19;;;;;;;;;;;;;;;;;;5001764;28;1737;-53
2021/07/24 13:41:44;;;;;;;;;;;;;;;;;;5001046;28;1700;-52
2021/07/24 13:44:10;;;;;;;;;;;;;;;;;;5001620;28;1396;-51
2021/07/24 13:46:35;;;;;;;;;;;;;;;;;;5005057;28;1370;-53
2021/07/24 13:49:00;;;;;;;;;;;;;;;;;;5000552;28;1613;-54
2021/07/24 13:51:28;;;;;;;;;;;;;;;;;;5001998;28;1363;-54
2021/07/24 13:53:54;;;;;;;;;;;;;;;;;;5001397;28;1028;-53
2021/07/24 13:56:19;;;;;;;;;;;;;;;;;;4999583;28;1902;-54
2021/07/24 13:58:44;;;;;;;;;;;;;;;;;;5004167;28;1253;-54
2021/07/24 14:01:10;;;;;;;;;;;;;;;;;;5001203;28;1401;-52
2021/07/24 14:03:36;;;;;;;;;;;;;;;;;;5000303;28;1560;-54
2021/07/24 14:06:03;;;;;;;;;;;;;;;;;;4999189;28;1591;-51
2021/07/24 14:08:28;;;;;;;;;;;;;;;;;;4999876;28;1530;-52
2021/07/24 14:10:53;;;;;;;;;;;;;;;;;;4998919;28;1641;-53
2021/07/24 14:13:18;;;;;;;;;;;;;;;;;;4999675;28;1359;-53
2021/07/24 14:15:44;;;;;;;;;;;;;;;;;;5002858;28;1973;-52
2021/07/24 14:18:09;;;;;;;;;;;;;;;;;;4998682;28;1607;-52
2021/07/24 14:20:34;;;;;;;;;;;;;;;;;;4999340;28;1508;-53
2021/07/24 14:22:59;;;;;;;;;;;;;;;;;;5001993;28;1181;-52
2021/07/24 14:25:24;;;;;;;;;;;;;;;;;;5001142;28;1538;-53
2021/07/24 14:27:49;;;;;;;;;;;;;;;;;;5002532;28;1083;-54
2021/07/24 14:30:15;;;;;;;;;;;;;;;;;;4999168;28;1788;-53
2021/07/24 14:32:40;;;;;;;;;;;;;;;;;;5002580;28;1252;-54
2021/07/24 14:35:05;;;;;;;;;;;;;;;;;;5000830;28;1178;-54
2021/07/24 14:37:30;;;;;;;;;;;;;;;;;;4998977;28;1914;-53
2021/07/24 14:39:56;;;;;;;;;;;;;;;;;;4997560;28;1613;-53
2021/07/24 14:42:23;;;;;;;;;;;;;;;;;;5003533;28;1166;-53
2021/07/24 14:44:48;;;;;;;;;;;;;;;;;;5000651;28;1318;-53
2021/07/24 14:47:15;;;;;;;;;;;;;;;;;;5001135;28;1350;-51
2021/07/24 14:49:40;;;;;;;;;;;;;;;;;;4998998;28;1498;-53
2021/07/24 14:52:06;;;;;;;;;;;;;;;;;;4999757;28;1388;-53
2021/07/24 14:54:32;;;;;;;;;;;;;;;;;;5001086;28;1118;-52
2021/07/24 14:56:57;;;;;;;;;;;;;;;;;;4995147;28;1902;-53
2021/07/24 14:59:22;;;;;;;;;;;;;;;;;;4999918;28;1344;-53
2021/07/24 15:01:47;;;;;;;;;;;;;;;;;;5000520;28;1133;-52
2021/07/24 15:04:12;;;;;;;;;;;;;;;;;;4998409;28;1563;-54
2021/07/24 15:06:38;;;;;;;;;;;;;;;;;;5002559;28;1288;-54
2021/07/24 15:09:03;;;;;;;;;;;;;;;;;;5000926;28;1368;-53
2021/07/24 15:11:28;;;;;;;;;;;;;;;;;;5000532;28;1672;-53
2021/07/24 15:13:54;;;;;;;;;;;;;;;;;;5000739;28;1461;-54
2021/07/24 15:16:19;;;;;;;;;;;;;;;;;;5002192;28;1906;-54
2021/07/24 15:18:44;;;;;;;;;;;;;;;;;;5001227;28;1217;-53
2021/07/24 15:21:16;;;;;;;;;;;;;;;;;;4997760;28;1664;-52
2021/07/24 15:23:42;;;;;;;;;;;;;;;;;;5001223;28;1134;-54
2021/07/24 15:26:07;;;;;;;;;;;;;;;;;;4999907;28;1567;-52
2021/07/24 15:28:32;;;;;;;;;;;;;;;;;;5021595;23;2175;-52
2021/07/24 15:30:57;;;;;;;;;;;;;;;;;;5017718;28;1834;-53
2021/07/24 15:33:23;;;;;;;;;;;;;;;;;;5015839;28;958;-51
2021/07/24 15:35:48;;;;;;;;;;;;;;;;;;5002070;28;1985;-53
2021/07/24 15:38:13;;;;;;;;;;;;;;;;;;5021822;28;1462;-52
2021/07/24 15:40:39;;;;;;;;;;;;;;;;;;5020124;28;1567;-54
2021/07/24 15:43:04;;;;;;;;;;;;;;;;;;5019864;28;1597;-52
2021/07/24 15:45:29;;;;;;;;;;;;;;;;;;5020770;28;1237;-53
2021/07/24 15:47:54;;;;;;;;;;;;;;;;;;5018139;28;1580;-53
2021/07/24 15:50:19;;;;;;;;;;;;;;;;;;5020553;28;1070;-54
2021/07/24 15:52:45;;;;;;;;;;;;;;;;;;5017933;28;1344;-53
2021/07/24 15:55:11;;;;;;;;;;;;;;;;;;5018063;28;1603;-54
2021/07/24 15:57:36;;;;;;;;;;;;;;;;;;5017023;28;1890;-54
2021/07/24 16:00:01;;;;;;;;;;;;;;;;;;5022190;28;1352;-53
2021/07/24 16:02:26;;;;;;;;;;;;;;;;;;5018541;28;1572;-53
2021/07/24 16:04:51;;;;;;;;;;;;;;;;;;5020084;28;1220;-54
2021/07/24 16:07:17;;;;;;;;;;;;;;;;;;5020479;28;1335;-54
2021/07/24 16:09:42;;;;;;;;;;;;;;;;;;5020419;28;1639;-52
2021/07/24 16:12:07;;;;;;;;;;;;;;;;;;5017400;28;1258;-52
2021/07/24 16:14:33;;;;;;;;;;;;;;;;;;5018678;28;1411;-51
2021/07/24 16:16:59;;;;;;;;;;;;;;;;;;5019130;28;1964;-54
2021/07/24 16:19:24;;;;;;;;;;;;;;;;;;5017736;28;1628;-53
2021/07/24 16:21:49;;;;;;;;;;;;;;;;;;5020539;28;1015;-53
2021/07/24 16:24:14;;;;;;;;;;;;;;;;;;5018348;28;1380;-53
2021/07/24 16:26:40;;;;;;;;;;;;;;;;;;5000718;28;1735;-53
2021/07/24 16:29:05;;;;;;;;;;;;;;;;;;5018878;28;1363;-53
2021/07/24 16:31:30;;;;;;;;;;;;;;;;;;5020288;28;1185;-54
2021/07/24 16:33:55;;;;;;;;;;;;;;;;;;5017228;28;1503;-52
2021/07/24 16:36:20;;;;;;;;;;;;;;;;;;5019361;28;1982;-53
2021/07/24 16:38:46;;;;;;;;;;;;;;;;;;5018800;28;1312;-54
2021/07/24 16:41:11;;;;;;;;;;;;;;;;;;5018581;28;1504;-54
2021/07/24 16:43:39;;;;;;;;;;;;;;;;;;5019529;28;1153;-54
2021/07/24 16:46:04;;;;;;;;;;;;;;;;;;5017177;28;1245;-54
2021/07/24 16:48:30;;;;;;;;;;;;;;;;;;5019077;28;1585;-53
2021/07/24 16:51:05;;;;;;;;;;;;;;;;;;5017071;28;1427;-52
2021/07/24 16:53:30;;;;;;;;;;;;;;;;;;5017784;28;1225;-53
2021/07/24 16:55:55;;;;;;;;;;;;;;;;;;5016290;28;1963;-53
2021/07/24 16:58:20;;;;;;;;;;;;;;;;;;4956742;28;1415;-51
2021/07/24 17:00:45;;;;;;;;;;;;;;;;;;5018555;28;1173;-53
2021/07/24 17:03:11;;;;;;;;;;;;;;;;;;5020252;28;1304;-54